createdAt,value
2023-02-24T00:02:04.993Z,5.43
2023-02-24T00:04:35.458Z,6.10
2023-02-24T00:07:02.782Z,6.43
2023-02-24T00:09:31.202Z,6.37
2023-02-24T00:12:04.617Z,6.03
2023-02-24T00:14:34.101Z,6.03
2023-02-24T00:17:01.344Z,5.93
2023-02-24T00:19:33.881Z,6.23
2023-02-24T00:22:05.766Z,6.37
2023-02-24T00:24:33.089Z,5.60
2023-02-24T00:27:02.477Z,5.77
2023-02-24T00:29:30.350Z,5.87
2023-02-24T00:32:05.282Z,6.20
2023-02-24T00:34:35.392Z,5.67
2023-02-24T00:37:03.140Z,5.67
2023-02-24T00:39:32.810Z,4.97
2023-02-24T00:42:06.771Z,5.80
2023-02-24T00:44:40.773Z,5.63
2023-02-24T00:47:10.510Z,5.30
2023-02-24T00:49:44.404Z,6.57
2023-02-24T00:52:14.183Z,5.60
2023-02-24T00:54:42.445Z,5.73
2023-02-24T00:57:09.814Z,5.50
2023-02-24T00:59:37.129Z,5.30
2023-02-24T01:02:06.940Z,5.73
2023-02-24T01:04:34.110Z,5.17
2023-02-24T01:07:01.563Z,5.80
2023-02-24T01:09:30.892Z,5.40
2023-02-24T01:12:16.890Z,5.40
2023-02-24T01:14:47.677Z,4.60
2023-02-24T01:17:16.286Z,5.47
2023-02-24T01:19:44.290Z,5.30
2023-02-24T01:22:14.842Z,5.30
2023-02-24T01:24:43.360Z,5.80
2023-02-24T01:27:15.538Z,6.43
2023-02-24T01:29:43.415Z,6.80
2023-02-24T01:32:17.265Z,6.00
2023-02-24T01:34:45.092Z,6.60
2023-02-24T01:37:16.223Z,6.13
2023-02-24T01:39:44.379Z,6.70
2023-02-24T01:42:16.896Z,5.67
2023-02-24T01:44:43.663Z,6.67
2023-02-24T01:47:11.860Z,6.53
2023-02-24T01:49:43.696Z,6.87
2023-02-24T01:52:26.997Z,7.20
2023-02-24T01:54:59.329Z,6.27
2023-02-24T01:57:30.718Z,5.50
2023-02-24T02:00:09.597Z,7.10
2023-02-24T02:02:38.909Z,6.17
2023-02-24T02:05:09.649Z,5.77
2023-02-24T02:07:39.276Z,6.90
2023-02-24T02:10:08.325Z,8.23
2023-02-24T02:12:40.523Z,5.00
2023-02-24T02:15:08.768Z,5.13
2023-02-24T02:17:51.383Z,5.17
2023-02-24T02:20:42.718Z,5.67
2023-02-24T02:23:18.499Z,5.70
2023-02-24T02:26:07.014Z,5.80
2023-02-24T02:28:53.977Z,6.87
2023-02-24T02:31:36.005Z,5.27
2023-02-24T02:34:37.055Z,4.00
2023-02-24T02:37:19.808Z,5.17
2023-02-24T02:39:46.634Z,4.17
2023-02-24T02:43:02.487Z,4.10
2023-02-24T02:46:08.711Z,3.90
2023-02-24T02:48:57.129Z,4.00
2023-02-24T02:51:51.670Z,3.90
2023-02-24T02:54:45.386Z,4.23
2023-02-24T02:57:23.126Z,3.53
2023-02-24T02:59:57.763Z,3.57
2023-02-24T03:02:31.325Z,3.53
2023-02-24T03:05:03.740Z,3.43
2023-02-24T03:07:37.521Z,4.30
2023-02-24T03:10:11.312Z,3.57
2023-02-24T03:12:40.841Z,3.83
2023-02-24T03:15:10.639Z,4.33
2023-02-24T03:17:41.453Z,3.40
2023-02-24T03:20:24.701Z,3.70
2023-02-24T03:23:19.730Z,3.60
2023-02-24T03:26:17.146Z,3.83
2023-02-24T03:29:08.183Z,4.40
2023-02-24T03:31:51.776Z,3.47
2023-02-24T03:34:32.319Z,3.90
2023-02-24T03:36:59.819Z,3.03
2023-02-24T03:39:26.570Z,3.30
2023-02-24T03:41:58.334Z,3.67
2023-02-24T03:44:25.050Z,4.10
2023-02-24T03:46:52.602Z,3.23
2023-02-24T03:49:19.393Z,3.80
2023-02-24T03:52:08.783Z,3.50
2023-02-24T03:54:54.380Z,3.10
2023-02-24T03:57:23.091Z,3.37
2023-02-24T04:00:23.301Z,3.17
2023-02-24T04:03:10.266Z,3.10
2023-02-24T04:05:47.571Z,3.27
2023-02-24T04:08:16.997Z,2.77
2023-02-24T04:11:05.689Z,3.37
2023-02-24T04:13:45.680Z,2.97
2023-02-24T04:16:27.966Z,6.30
2023-02-24T04:19:03.878Z,2.70
2023-02-24T04:21:32.186Z,2.63
2023-02-24T04:24:05.941Z,3.10
2023-02-24T04:26:36.457Z,3.67
2023-02-24T04:29:03.713Z,2.97
2023-02-24T04:31:31.916Z,2.67
2023-02-24T04:34:00.158Z,3.80
2023-02-24T04:36:26.867Z,2.60
2023-02-24T04:38:54.231Z,3.53
2023-02-24T04:41:21.696Z,2.57
2023-02-24T04:43:50.905Z,3.33
2023-02-24T04:46:19.302Z,2.73
2023-02-24T04:48:46.235Z,4.53
2023-02-24T04:51:13.704Z,2.70
2023-02-24T04:53:40.680Z,2.60
2023-02-24T04:56:11.122Z,2.57
2023-02-24T04:58:39.320Z,2.73
2023-02-24T05:01:10.360Z,2.67
2023-02-24T05:03:38.622Z,2.57
2023-02-24T05:06:06.410Z,3.07
2023-02-24T05:08:33.852Z,2.80
2023-02-24T05:11:03.949Z,2.97
2023-02-24T05:13:32.319Z,2.67
2023-02-24T05:16:06.180Z,2.90
2023-02-24T05:18:37.238Z,3.03
2023-02-24T05:21:30.799Z,3.10
2023-02-24T05:24:06.396Z,3.23
2023-02-24T05:26:35.850Z,4.17
2023-02-24T05:29:04.114Z,3.43
2023-02-24T05:31:32.059Z,2.80
2023-02-24T05:34:02.523Z,3.20
2023-02-24T05:36:32.074Z,2.87
2023-02-24T05:38:59.509Z,3.60
2023-02-24T05:41:35.723Z,3.47
2023-02-24T05:44:08.364Z,3.13
2023-02-24T05:46:37.912Z,3.13
2023-02-24T05:49:10.185Z,3.47
2023-02-24T05:51:39.079Z,3.17
2023-02-24T05:54:13.036Z,3.57
2023-02-24T05:56:44.570Z,3.30
2023-02-24T05:59:13.163Z,3.73
2023-02-24T06:01:41.866Z,3.20
2023-02-24T06:04:09.825Z,2.93
2023-02-24T06:06:39.639Z,2.90
2023-02-24T06:09:10.734Z,3.40
2023-02-24T06:11:40.693Z,3.30
2023-02-24T06:14:08.383Z,2.63
2023-02-24T06:16:37.489Z,3.03
2023-02-24T06:19:05.197Z,4.10
2023-02-24T06:21:32.199Z,3.40
2023-02-24T06:23:59.584Z,2.70
2023-02-24T06:26:29.844Z,3.33
2023-02-24T06:28:58.759Z,3.20
2023-02-24T06:31:27.332Z,2.60
2023-02-24T06:33:54.317Z,3.47
2023-02-24T06:36:21.847Z,3.20
2023-02-24T06:38:52.665Z,3.00
2023-02-24T06:41:19.960Z,2.87
2023-02-24T06:43:48.266Z,2.83
2023-02-24T06:46:16.484Z,2.60
2023-02-24T06:48:43.492Z,3.10
2023-02-24T06:51:15.761Z,2.50
2023-02-24T06:53:45.730Z,2.00
2023-02-24T06:56:15.048Z,2.90
2023-02-24T06:58:43.785Z,2.70
2023-02-24T07:01:22.155Z,2.90
2023-02-24T07:04:07.186Z,2.50
2023-02-24T07:06:40.965Z,2.57
2023-02-24T07:09:13.109Z,2.23
2023-02-24T07:11:52.054Z,1.90
2023-02-24T07:14:21.778Z,2.50
2023-02-24T07:16:54.070Z,2.40
2023-02-24T07:19:24.118Z,2.80
2023-02-24T07:21:52.587Z,2.20
2023-02-24T07:24:25.297Z,2.80
2023-02-24T07:26:57.065Z,2.87
2023-02-24T07:29:25.495Z,2.93
2023-02-24T07:31:56.539Z,3.00
2023-02-24T07:34:25.127Z,2.57
2023-02-24T07:36:53.213Z,2.57
2023-02-24T07:39:23.019Z,2.80
2023-02-24T07:41:51.884Z,3.17
2023-02-24T07:44:20.012Z,2.10
2023-02-24T07:46:49.010Z,3.00
2023-02-24T07:49:25.853Z,2.80
2023-02-24T07:51:55.247Z,3.10
2023-02-24T07:54:25.141Z,3.50
2023-02-24T07:56:58.918Z,3.77
2023-02-24T07:59:29.323Z,2.97
2023-02-24T08:01:56.417Z,2.37
2023-02-24T08:04:29.895Z,2.57
2023-02-24T08:06:58.865Z,2.77
2023-02-24T08:09:51.908Z,3.40
2023-02-24T08:12:22.821Z,7.17
2023-02-24T08:14:53.565Z,2.40
2023-02-24T08:17:26.409Z,3.00
2023-02-24T08:20:14.013Z,3.47
2023-02-24T08:22:47.083Z,2.87
2023-02-24T08:25:19.062Z,3.57
2023-02-24T08:28:06.385Z,2.63
2023-02-24T08:30:39.992Z,2.53
2023-02-24T08:33:15.776Z,3.00
2023-02-24T08:35:44.981Z,2.90
2023-02-24T08:38:15.942Z,3.07
2023-02-24T08:40:54.842Z,3.20
2023-02-24T08:43:32.789Z,2.90
2023-02-24T08:46:03.853Z,3.37
2023-02-24T08:48:42.261Z,2.70
2023-02-24T08:51:17.712Z,3.33
2023-02-24T08:53:46.822Z,2.50
2023-02-24T08:56:23.978Z,2.23
2023-02-24T08:59:05.998Z,2.70
2023-02-24T09:01:40.305Z,2.47
2023-02-24T09:04:10.142Z,2.77
2023-02-24T09:06:45.674Z,3.03
2023-02-24T09:09:18.333Z,3.10
2023-02-24T09:12:00.029Z,2.40
2023-02-24T09:14:29.921Z,3.67
2023-02-24T09:17:03.216Z,3.10
2023-02-24T09:19:49.622Z,3.70
2023-02-24T09:22:37.603Z,3.20
2023-02-24T09:25:18.085Z,3.17
2023-02-24T09:27:52.124Z,3.00
2023-02-24T09:30:37.071Z,3.10
2023-02-24T09:33:18.606Z,3.27
2023-02-24T09:36:13.070Z,3.20
2023-02-24T09:38:59.735Z,3.20
2023-02-24T09:42:17.946Z,3.53
2023-02-24T09:44:57.704Z,2.97
2023-02-24T09:47:57.470Z,3.83
2023-02-24T09:50:51.577Z,3.10
2023-02-24T09:53:14.068Z,2.97
2023-02-24T09:56:03.850Z,3.40
2023-02-24T09:58:47.738Z,3.93
2023-02-24T10:01:42.726Z,3.60
2023-02-24T10:04:20.791Z,3.80
2023-02-24T10:06:48.404Z,3.23
2023-02-24T10:09:27.121Z,3.50
2023-02-24T10:12:04.319Z,3.77
2023-02-24T10:14:52.953Z,3.83
2023-02-24T10:17:24.351Z,3.93
2023-02-24T10:20:02.544Z,4.13
2023-02-24T10:22:51.926Z,4.23
2023-02-24T10:25:42.508Z,4.80
2023-02-24T10:28:36.176Z,5.37
2023-02-24T10:31:10.500Z,5.40
2023-02-24T10:33:46.335Z,5.10
2023-02-24T10:36:17.707Z,4.90
2023-02-24T10:38:45.799Z,5.17
2023-02-24T10:41:17.152Z,5.00
2023-02-24T10:43:57.640Z,4.40
2023-02-24T10:46:41.582Z,4.90
2023-02-24T10:49:11.771Z,4.70
2023-02-24T10:51:45.195Z,4.67
2023-02-24T10:54:43.556Z,5.00
2023-02-24T10:57:36.390Z,4.80
2023-02-24T11:00:17.788Z,4.73
2023-02-24T11:03:06.764Z,5.50
2023-02-24T11:06:08.262Z,6.10
2023-02-24T11:08:39.755Z,6.90
2023-02-24T11:11:51.317Z,5.80
2023-02-24T11:14:37.336Z,5.83
2023-02-24T11:17:17.393Z,6.63
2023-02-24T11:20:00.931Z,5.67
2023-02-24T11:22:33.618Z,6.20
2023-02-24T11:25:17.288Z,6.20
2023-02-24T11:27:45.870Z,7.37
2023-02-24T11:30:36.822Z,6.97
2023-02-24T11:33:12.578Z,7.77
2023-02-24T11:35:54.825Z,6.80
2023-02-24T11:38:44.332Z,8.10
2023-02-24T11:41:41.070Z,8.00
2023-02-24T11:44:34.815Z,7.27
2023-02-24T11:47:10.764Z,8.33
2023-02-24T11:49:43.258Z,9.17
2023-02-24T11:52:18.990Z,9.50
2023-02-24T11:54:52.227Z,8.10
2023-02-24T11:57:42.435Z,9.07
2023-02-24T12:00:15.773Z,7.70
2023-02-24T12:02:52.820Z,8.40
2023-02-24T12:05:27.190Z,8.17
2023-02-24T12:07:55.576Z,8.43
2023-02-24T12:10:53.831Z,7.93
2023-02-24T12:13:21.085Z,7.03
2023-02-24T12:15:59.404Z,6.90
2023-02-24T12:18:47.219Z,8.00
2023-02-24T12:21:29.795Z,6.80
2023-02-24T12:23:58.473Z,6.50
2023-02-24T12:26:42.578Z,6.57
2023-02-24T12:29:35.323Z,6.17
2023-02-24T12:32:32.539Z,5.80
2023-02-24T12:35:44.665Z,6.33
2023-02-24T12:38:40.863Z,6.30
2023-02-24T12:41:23.080Z,5.80
2023-02-24T12:44:08.411Z,5.03
2023-02-24T12:46:37.729Z,4.93
2023-02-24T12:49:09.364Z,5.17
2023-02-24T12:51:38.876Z,4.83
2023-02-24T12:54:27.289Z,5.90
2023-02-24T12:57:10.518Z,5.47
2023-02-24T12:59:41.446Z,4.97
2023-02-24T13:02:08.145Z,5.00
2023-02-24T13:05:10.425Z,5.23
2023-02-24T13:07:40.052Z,5.80
2023-02-24T13:10:29.198Z,4.80
2023-02-24T13:13:15.496Z,5.27
2023-02-24T13:15:57.087Z,4.33
2023-02-24T13:18:35.688Z,5.40
2023-02-24T13:21:19.905Z,5.10
2023-02-24T13:23:58.890Z,4.80
2023-02-24T13:26:28.422Z,4.40
2023-02-24T13:29:13.475Z,4.60
2023-02-24T13:31:52.324Z,4.60
2023-02-24T13:34:21.785Z,5.50
2023-02-24T13:36:50.428Z,5.70
2023-02-24T13:39:37.114Z,5.20
2023-02-24T13:42:29.773Z,5.90
2023-02-24T13:45:02.286Z,5.80
2023-02-24T13:47:32.294Z,5.20
2023-02-24T13:50:25.163Z,4.70
2023-02-24T13:53:42.650Z,5.20
2023-02-24T13:56:10.589Z,5.60
2023-02-24T13:58:52.540Z,5.80
2023-02-24T14:01:21.266Z,5.80
2023-02-24T14:04:21.252Z,6.73
2023-02-24T14:06:52.106Z,6.73
2023-02-24T14:09:27.244Z,6.50
2023-02-24T14:11:59.494Z,6.67
2023-02-24T14:14:27.176Z,6.97
2023-02-24T14:16:53.902Z,6.90
2023-02-24T14:19:20.617Z,7.10
2023-02-24T14:21:53.888Z,8.50
2023-02-24T14:24:21.344Z,7.50
2023-02-24T14:26:52.279Z,8.03
2023-02-24T14:29:29.740Z,8.10
2023-02-24T14:31:57.065Z,7.33
2023-02-24T14:34:26.381Z,8.00
2023-02-24T14:36:59.055Z,7.00
2023-02-24T14:39:29.291Z,9.47
2023-02-24T14:42:26.137Z,8.23
2023-02-24T14:44:55.381Z,7.43
2023-02-24T14:47:25.385Z,8.20
2023-02-24T14:50:02.239Z,9.37
2023-02-24T14:52:28.987Z,8.03
2023-02-24T14:55:01.132Z,7.80
2023-02-24T14:57:32.524Z,8.10
2023-02-24T15:00:10.857Z,9.10
2023-02-24T15:02:43.824Z,7.80
2023-02-24T15:05:12.047Z,8.13
2023-02-24T15:07:39.978Z,8.77
2023-02-24T15:10:07.785Z,8.60
2023-02-24T15:12:44.123Z,7.70
2023-02-24T15:15:19.806Z,8.47
2023-02-24T15:17:54.161Z,7.83
2023-02-24T15:20:28.232Z,8.77
2023-02-24T15:22:55.774Z,8.27
2023-02-24T15:25:37.157Z,7.73
2023-02-24T15:28:20.388Z,8.57
2023-02-24T15:31:11.073Z,8.77
2023-02-24T15:33:44.202Z,8.50
2023-02-24T15:36:20.932Z,8.73
2023-02-24T15:38:52.791Z,9.00
2023-02-24T15:41:19.814Z,9.70
2023-02-24T15:43:50.192Z,8.43
2023-02-24T15:46:30.491Z,8.83
2023-02-24T15:49:01.619Z,8.03
2023-02-24T15:51:38.626Z,8.23
2023-02-24T15:54:13.319Z,8.47
2023-02-24T15:56:41.262Z,7.57
2023-02-24T15:59:08.283Z,7.90
2023-02-24T16:01:35.127Z,8.53
2023-02-24T16:04:04.650Z,6.90
2023-02-24T16:06:32.033Z,8.23
2023-02-24T16:08:59.399Z,6.90
2023-02-24T16:11:31.730Z,7.00
2023-02-24T16:14:00.331Z,6.80
2023-02-24T16:16:27.610Z,7.20
2023-02-24T16:18:54.341Z,7.77
2023-02-24T16:21:21.219Z,7.87
2023-02-24T16:23:48.601Z,7.83
2023-02-24T16:26:20.316Z,8.30
2023-02-24T16:28:52.729Z,7.43
2023-02-24T16:31:20.145Z,7.83
2023-02-24T16:33:55.056Z,9.13
2023-02-24T16:36:24.314Z,8.43
2023-02-24T16:38:51.839Z,9.03
2023-02-24T16:41:18.945Z,9.10
2023-02-24T16:43:45.617Z,9.27
2023-02-24T16:46:22.402Z,9.90
2023-02-24T16:48:52.842Z,9.60
2023-02-24T16:51:20.226Z,10.60
2023-02-24T16:53:46.929Z,11.30
2023-02-24T16:56:15.164Z,11.30
2023-02-24T16:58:42.061Z,10.40
2023-02-24T17:01:14.180Z,10.90
2023-02-24T17:03:46.315Z,11.57
2023-02-24T17:06:13.151Z,12.57
2023-02-24T17:08:42.805Z,12.00
2023-02-24T17:11:13.947Z,14.00
2023-02-24T17:13:40.977Z,12.60
2023-02-24T17:16:08.138Z,14.30
2023-02-24T17:18:34.843Z,13.30
2023-02-24T17:21:01.689Z,13.70
2023-02-24T17:23:28.430Z,13.00
2023-02-24T17:26:01.887Z,11.83
2023-02-24T17:28:28.771Z,9.40
2023-02-24T17:30:55.613Z,9.30
2023-02-24T17:33:22.617Z,10.53
2023-02-24T17:35:49.397Z,10.30
2023-02-24T17:38:18.365Z,9.53
2023-02-24T17:40:45.990Z,9.13
2023-02-24T17:43:13.194Z,9.90
2023-02-24T17:45:46.081Z,9.77
2023-02-24T17:48:14.581Z,8.40
2023-02-24T17:50:42.551Z,8.20
2023-02-24T17:53:09.389Z,5.60
2023-02-24T17:55:36.250Z,4.90
2023-02-24T17:58:03.039Z,3.17
2023-02-24T18:00:29.786Z,3.20
2023-02-24T18:02:56.674Z,2.90
2023-02-24T18:05:23.468Z,3.07
2023-02-24T18:07:50.174Z,3.10
2023-02-24T18:10:17.365Z,3.50
2023-02-24T18:12:44.153Z,2.30
2023-02-24T18:15:11.374Z,2.57
2023-02-24T18:17:38.778Z,2.57
2023-02-24T18:20:07.390Z,2.73
2023-02-24T18:22:34.616Z,2.70
2023-02-24T18:25:01.327Z,2.80
2023-02-24T18:27:28.122Z,2.93
2023-02-24T18:29:54.992Z,3.20
2023-02-24T18:32:22.388Z,2.47
2023-02-24T18:34:49.378Z,3.63
2023-02-24T18:37:16.056Z,2.70
2023-02-24T18:39:42.850Z,3.07
2023-02-24T18:42:09.892Z,2.57
2023-02-24T18:44:36.651Z,2.43
2023-02-24T18:47:09.207Z,3.10
2023-02-24T18:49:37.164Z,2.47
2023-02-24T18:52:05.390Z,2.83
2023-02-24T18:54:33.827Z,3.40
2023-02-24T18:57:01.108Z,3.20
2023-02-24T18:59:27.866Z,2.93
2023-02-24T19:01:56.712Z,2.63
2023-02-24T19:04:24.768Z,3.53
2023-02-24T19:06:51.511Z,3.30
2023-02-24T19:09:21.923Z,3.73
2023-02-24T19:11:49.608Z,3.73
2023-02-24T19:14:16.483Z,2.90
2023-02-24T19:16:43.508Z,3.70
2023-02-24T19:19:13.820Z,2.80
2023-02-24T19:21:40.723Z,3.70
2023-02-24T19:24:11.097Z,4.17
2023-02-24T19:26:38.645Z,4.97
2023-02-24T19:29:06.103Z,3.40
2023-02-24T19:31:33.607Z,3.77
2023-02-24T19:34:03.540Z,4.10
2023-02-24T19:36:32.685Z,4.33
2023-02-24T19:38:59.416Z,4.53
2023-02-24T19:41:26.413Z,3.80
2023-02-24T19:43:53.533Z,4.47
2023-02-24T19:46:20.514Z,5.20
2023-02-24T19:48:48.498Z,4.10
2023-02-24T19:51:23.499Z,4.20
2023-02-24T19:53:54.882Z,5.60
2023-02-24T19:56:30.490Z,5.20
2023-02-24T19:58:59.134Z,5.07
2023-02-24T20:01:28.816Z,3.90
2023-02-24T20:04:01.297Z,4.37
2023-02-24T20:06:32.135Z,3.83
2023-02-24T20:09:00.690Z,3.73
2023-02-24T20:11:29.764Z,4.20
2023-02-24T20:13:56.626Z,3.90
2023-02-24T20:16:25.743Z,4.67
2023-02-24T20:18:55.205Z,4.93
2023-02-24T20:21:22.073Z,4.50
2023-02-24T20:23:48.803Z,5.33
2023-02-24T20:26:16.356Z,5.80
2023-02-24T20:28:44.892Z,4.40
2023-02-24T20:31:15.442Z,4.40
2023-02-24T20:33:43.803Z,4.63
2023-02-24T20:36:16.042Z,4.07
2023-02-24T20:38:42.861Z,4.17
2023-02-24T20:41:10.200Z,4.20
2023-02-24T20:43:37.760Z,5.67
2023-02-24T20:46:24.730Z,5.30
2023-02-24T20:48:54.809Z,5.47
2023-02-24T20:51:23.097Z,4.47
2023-02-24T20:53:57.392Z,4.73
2023-02-24T20:56:29.515Z,3.87
2023-02-24T20:59:01.725Z,4.53
2023-02-24T21:01:30.404Z,4.00
2023-02-24T21:03:58.055Z,4.73
2023-02-24T21:06:25.589Z,5.50
2023-02-24T21:08:53.306Z,3.93
2023-02-24T21:11:21.141Z,4.10
2023-02-24T21:13:49.748Z,3.93
2023-02-24T21:16:18.140Z,3.47
2023-02-24T21:18:46.966Z,4.77
2023-02-24T21:21:15.331Z,3.30
2023-02-24T21:23:43.399Z,5.53
2023-02-24T21:26:10.465Z,4.73
2023-02-24T21:28:37.807Z,4.33
2023-02-24T21:31:16.117Z,4.33
2023-02-24T21:33:43.092Z,4.97
2023-02-24T21:36:13.976Z,4.20
2023-02-24T21:38:41.306Z,4.70
2023-02-24T21:41:13.381Z,4.40
2023-02-24T21:43:40.535Z,3.40
2023-02-24T21:46:11.527Z,5.63
2023-02-24T21:48:38.743Z,6.07
2023-02-24T21:51:09.457Z,5.10
2023-02-24T21:53:39.236Z,5.23
2023-02-24T21:56:16.258Z,4.03
2023-02-24T21:58:46.118Z,4.70
2023-02-24T22:01:17.019Z,4.70
2023-02-24T22:03:44.359Z,4.03
2023-02-24T22:06:15.029Z,4.17
2023-02-24T22:08:45.661Z,3.40
2023-02-24T22:11:15.130Z,3.90
2023-02-24T22:13:42.655Z,3.67
2023-02-24T22:16:12.838Z,4.77
2023-02-24T22:18:40.325Z,4.60
2023-02-24T22:21:19.804Z,4.20
2023-02-24T22:23:48.723Z,5.17
2023-02-24T22:26:16.858Z,4.50
2023-02-24T22:28:45.360Z,4.77
2023-02-24T22:31:14.642Z,4.93
2023-02-24T22:33:42.808Z,4.30
2023-02-24T22:36:20.784Z,5.57
2023-02-24T22:38:48.127Z,3.50
2023-02-24T22:41:20.954Z,4.83
2023-02-24T22:43:48.201Z,4.20
2023-02-24T22:46:17.870Z,5.03
2023-02-24T22:48:45.177Z,4.30
2023-02-24T22:51:13.537Z,4.97
2023-02-24T22:53:43.443Z,5.20
2023-02-24T22:56:15.499Z,5.53
2023-02-24T22:58:43.375Z,5.03
2023-02-24T23:01:12.357Z,4.03
2023-02-24T23:03:40.144Z,4.50
2023-02-24T23:06:09.768Z,3.50
2023-02-24T23:08:39.288Z,4.40
2023-02-24T23:11:12.218Z,3.53
2023-02-24T23:13:40.291Z,4.07
2023-02-24T23:16:09.473Z,3.97
2023-02-24T23:18:37.327Z,4.53
2023-02-24T23:21:08.582Z,3.30
2023-02-24T23:23:37.340Z,4.73
2023-02-24T23:26:05.335Z,4.10
2023-02-24T23:28:32.428Z,4.30
2023-02-24T23:30:59.363Z,4.00
2023-02-24T23:33:26.302Z,3.87
2023-02-24T23:35:53.040Z,3.70
2023-02-24T23:38:19.820Z,4.13
2023-02-24T23:40:50.955Z,3.57
2023-02-24T23:43:18.536Z,3.30
2023-02-24T23:45:45.703Z,3.63
2023-02-24T23:48:14.011Z,4.90
2023-02-24T23:50:42.304Z,3.90
2023-02-24T23:53:10.016Z,3.13
2023-02-24T23:55:40.004Z,3.90
2023-02-24T23:58:07.372Z,3.97
